Time;durP1;ratioP1;P1;durP2;ratioP2;P2;SDS_P1;SDS_P2;PMS_P1;PMS_P2;Temp;Humidity;BMP_temperature;BMP_pressure;BME280_temperature;BME280_humidity;BME280_pressure;Samples;Min_cycle;Max_cycle;Signal;HPM_P1;HPM_P2
2022/09/17 00:00:57;;;;;;;1.95;0.90;;;19.40;59.30;;;;;;5072110;28;20214;-72
2022/09/17 00:03:24;;;;;;;2.95;0.82;;;19.40;59.40;;;;;;5072735;28;20253;-71
2022/09/17 00:05:59;;;;;;;2.65;1.02;;;19.40;59.30;;;;;;5071908;28;20185;-69
2022/09/17 00:08:25;;;;;;;1.73;0.73;;;19.30;59.30;;;;;;5071406;28;20657;-69
2022/09/17 00:10:50;;;;;;;1.95;1.02;;;19.40;59.30;;;;;;5072526;28;20255;-70
2022/09/17 00:13:16;;;;;;;5.78;0.88;;;19.40;59.40;;;;;;5071650;28;20197;-71
2022/09/17 00:15:42;;;;;;;1.73;0.88;;;19.40;59.40;;;;;;5072449;28;20182;-71
2022/09/17 00:18:08;;;;;;;2.28;0.82;;;19.30;59.40;;;;;;5072415;28;20261;-71
2022/09/17 00:20:41;;;;;;;2.13;0.90;;;19.30;59.40;;;;;;5071910;28;20755;-70
2022/09/17 00:23:07;;;;;;;2.50;0.73;;;19.30;59.40;;;;;;5072325;28;20179;-70
2022/09/17 00:25:33;;;;;;;1.85;0.85;;;19.30;59.30;;;;;;5072597;28;20185;-69
2022/09/17 00:27:58;;;;;;;2.75;1.00;;;19.30;59.30;;;;;;5071215;28;20521;-71
2022/09/17 00:30:24;;;;;;;2.60;1.08;;;19.30;59.40;;;;;;5072515;28;20297;-70
2022/09/17 00:32:52;;;;;;;1.48;0.70;;;19.30;59.40;;;;;;5072640;28;20181;-71
2022/09/17 00:35:17;;;;;;;2.65;0.82;;;19.30;59.40;;;;;;5071424;28;20189;-71
2022/09/17 00:37:43;;;;;;;2.17;1.15;;;19.30;59.40;;;;;;5072269;28;20174;-71
2022/09/17 00:40:09;;;;;;;1.60;0.80;;;19.30;59.40;;;;;;5072054;28;20303;-72
2022/09/17 00:42:34;;;;;;;2.42;0.90;;;19.30;59.40;;;;;;5071512;28;20224;-71
2022/09/17 00:45:00;;;;;;;1.95;0.95;;;19.30;59.40;;;;;;5072119;28;20606;-70
2022/09/17 00:47:30;;;;;;;1.35;0.80;;;19.30;59.40;;;;;;5071493;28;20507;-71
2022/09/17 00:50:12;;;;;;;1.98;1.10;;;19.30;59.40;;;;;;5072031;28;20500;-70
2022/09/17 00:52:57;;;;;;;2.10;0.90;;;19.30;59.50;;;;;;5054771;28;20231;-70
2022/09/17 00:55:29;;;;;;;0.77;0.52;;;19.30;59.50;;;;;;5054159;28;20541;-70
2022/09/17 00:57:59;;;;;;;1.48;0.85;;;19.30;59.50;;;;;;5055032;28;20475;-71
2022/09/17 01:00:25;;;;;;;3.03;0.75;;;19.30;59.50;;;;;;5070973;28;20212;-71
2022/09/17 01:02:52;;;;;;;1.80;1.00;;;19.30;59.50;;;;;;5071258;28;20205;-71
2022/09/17 01:05:18;;;;;;;1.67;0.70;;;19.30;59.50;;;;;;5071954;28;20205;-70
2022/09/17 01:07:47;;;;;;;4.53;0.98;;;19.30;59.50;;;;;;5054045;28;20226;-69
2022/09/17 01:10:16;;;;;;;2.40;1.00;;;19.30;59.50;;;;;;5069801;28;20210;-70
2022/09/17 01:13:10;;;;;;;1.90;0.90;;;19.30;59.50;;;;;;5072077;28;20162;-72
2022/09/17 01:16:13;;;;;;;2.20;0.88;;;19.30;59.50;;;;;;5066024;28;20182;-71
2022/09/17 01:18:50;;;;;;;1.88;0.90;;;19.20;59.50;;;;;;5070990;28;20210;-71
2022/09/17 01:21:34;;;;;;;2.40;0.85;;;19.30;59.50;;;;;;5070349;28;20200;-71
2022/09/17 01:24:05;;;;;;;1.90;0.80;;;19.30;59.60;;;;;;5070877;28;20243;-70
2022/09/17 01:26:53;;;;;;;1.00;0.80;;;19.30;59.60;;;;;;5070854;28;20163;-70
2022/09/17 01:29:42;;;;;;;2.10;0.82;;;19.20;59.50;;;;;;5070190;28;20669;-71
2022/09/17 01:32:52;;;;;;;1.27;0.73;;;19.20;59.50;;;;;;5072184;28;20182;-70
2022/09/17 01:35:23;;;;;;;3.25;1.10;;;19.30;59.60;;;;;;5053029;28;20308;-70
2022/09/17 01:38:11;;;;;;;1.55;0.63;;;19.20;59.50;;;;;;5036547;28;20183;-71
2022/09/17 01:40:59;;;;;;;2.33;0.93;;;19.20;59.50;;;;;;5059762;28;20182;-71
2022/09/17 01:44:02;;;;;;;2.95;1.10;;;19.20;59.60;;;;;;5071610;28;20175;-70
2022/09/17 01:46:38;;;;;;;2.38;1.02;;;19.20;59.50;;;;;;5075373;28;20178;-70
2022/09/17 01:49:04;;;;;;;2.72;0.88;;;19.20;59.60;;;;;;5074877;28;20641;-70
2022/09/17 01:51:37;;;;;;;1.77;0.82;;;19.20;59.60;;;;;;5073307;28;20178;-70
2022/09/17 01:54:20;;;;;;;2.53;1.00;;;19.20;59.60;;;;;;5057672;28;20183;-70
2022/09/17 01:56:55;;;;;;;3.33;0.98;;;19.20;59.60;;;;;;5058454;28;20175;-71
2022/09/17 01:59:45;;;;;;;2.92;0.95;;;19.20;59.60;;;;;;5056897;28;20189;-70
2022/09/17 02:02:17;;;;;;;2.45;1.00;;;19.20;59.60;;;;;;5059425;28;20177;-71
2022/09/17 02:04:48;;;;;;;2.15;0.70;;;19.20;59.60;;;;;;5056751;28;20182;-70
2022/09/17 02:07:21;;;;;;;2.10;0.90;;;19.20;59.60;;;;;;5057273;28;20229;-70
2022/09/17 02:09:52;;;;;;;2.60;1.00;;;19.20;59.60;;;;;;5073667;28;20213;-70
2022/09/17 02:12:20;;;;;;;2.72;1.02;;;19.20;59.60;;;;;;5056445;28;20200;-71
2022/09/17 02:14:51;;;;;;;2.65;1.13;;;19.20;59.60;;;;;;5073865;28;20257;-70
2022/09/17 02:17:44;;;;;;;2.78;0.95;;;19.20;59.70;;;;;;5056766;28;20937;-71
2022/09/17 02:20:09;;;;;;;1.83;0.77;;;19.20;59.70;;;;;;5068071;28;20261;-71
2022/09/17 02:22:56;;;;;;;1.33;0.80;;;19.10;59.60;;;;;;5074632;28;20262;-70
2022/09/17 02:25:32;;;;;;;2.25;0.90;;;19.10;59.60;;;;;;5057844;28;20214;-70
2022/09/17 02:28:07;;;;;;;1.10;0.70;;;19.20;59.70;;;;;;5056609;28;20170;-70
2022/09/17 02:30:33;;;;;;;1.52;0.90;;;19.20;59.70;;;;;;5073311;28;20209;-70
2022/09/17 02:33:00;;;;;;;3.42;1.13;;;19.20;59.70;;;;;;5072296;28;20273;-71
2022/09/17 02:35:25;;;;;;;2.60;0.77;;;19.20;59.70;;;;;;5056783;28;20652;-71
2022/09/17 02:37:52;;;;;;;2.50;0.95;;;19.10;59.70;;;;;;5073492;28;20273;-71
2022/09/17 02:40:17;;;;;;;3.28;1.10;;;19.10;59.70;;;;;;5073507;28;20247;-71
2022/09/17 02:42:56;;;;;;;1.73;0.63;;;19.10;59.80;;;;;;5073293;28;20166;-70
2022/09/17 02:45:48;;;;;;;2.40;0.88;;;19.10;59.70;;;;;;5056979;28;20356;-70
2022/09/17 02:48:32;;;;;;;1.00;0.70;;;19.10;59.80;;;;;;5063161;28;20186;-70
2022/09/17 02:51:19;;;;;;;2.50;1.00;;;19.10;59.70;;;;;;5073941;28;20218;-70
2022/09/17 02:54:26;;;;;;;2.33;0.63;;;19.10;59.80;;;;;;5072738;28;20210;-70
2022/09/17 02:56:58;;;;;;;1.63;0.82;;;19.10;59.80;;;;;;5057399;28;20182;-70
2022/09/17 02:59:41;;;;;;;2.30;0.90;;;19.10;59.80;;;;;;5073938;28;20678;-70
2022/09/17 03:02:08;;;;;;;1.55;0.73;;;19.10;59.80;;;;;;5057402;28;20175;-71
2022/09/17 03:04:33;;;;;;;1.80;0.70;;;19.10;59.80;;;;;;5072590;28;20257;-70
2022/09/17 03:06:59;;;;;;;1.63;1.05;;;19.10;59.80;;;;;;5073582;28;20317;-70
2022/09/17 03:09:25;;;;;;;2.42;0.98;;;19.10;59.80;;;;;;5055104;28;20202;-70
2022/09/17 03:11:50;;;;;;;1.73;0.95;;;19.10;59.80;;;;;;5073672;28;20531;-70
2022/09/17 03:14:19;;;;;;;2.60;0.95;;;19.10;59.80;;;;;;5072179;28;20197;-71
2022/09/17 03:16:45;;;;;;;2.60;1.13;;;19.10;59.80;;;;;;5072857;28;20220;-71
2022/09/17 03:19:10;;;;;;;2.25;1.23;;;19.10;59.90;;;;;;5073437;28;20171;-71
2022/09/17 03:21:36;;;;;;;2.80;1.25;;;19.10;59.90;;;;;;5073727;28;20179;-71
2022/09/17 03:24:01;;;;;;;2.63;0.85;;;19.10;59.90;;;;;;5072582;28;20175;-70
2022/09/17 03:26:27;;;;;;;4.22;0.93;;;19.10;59.90;;;;;;5073693;28;20230;-71
2022/09/17 03:28:52;;;;;;;1.92;0.80;;;19.10;59.80;;;;;;5073400;28;20316;-70
2022/09/17 03:31:18;;;;;;;2.13;0.82;;;19.10;59.90;;;;;;5072482;28;20317;-70
2022/09/17 03:33:44;;;;;;;2.72;1.02;;;19.10;59.90;;;;;;5073184;28;20305;-71
2022/09/17 03:36:09;;;;;;;2.05;0.68;;;19.00;59.90;;;;;;5072426;28;20174;-70
2022/09/17 03:38:37;;;;;;;1.48;0.63;;;19.00;59.80;;;;;;5073273;28;20590;-71
2022/09/17 03:41:07;;;;;;;3.35;1.35;;;19.00;59.90;;;;;;5072853;28;20178;-71
2022/09/17 03:43:33;;;;;;;1.25;0.70;;;19.00;59.90;;;;;;5072341;28;20597;-70
2022/09/17 03:45:59;;;;;;;2.15;1.00;;;19.00;59.90;;;;;;5072554;28;20182;-70
2022/09/17 03:48:24;;;;;;;3.38;1.15;;;19.00;59.90;;;;;;5073267;28;20282;-70
2022/09/17 03:50:50;;;;;;;1.52;0.80;;;19.00;59.90;;;;;;5072099;28;20382;-70
2022/09/17 03:53:16;;;;;;;2.05;0.73;;;19.00;59.90;;;;;;5072444;28;20668;-70
2022/09/17 03:55:41;;;;;;;2.42;1.20;;;19.00;59.90;;;;;;5072930;28;20587;-69
2022/09/17 03:58:07;;;;;;;1.70;0.82;;;19.00;59.90;;;;;;5071753;28;20223;-71
2022/09/17 04:00:32;;;;;;;1.88;0.90;;;18.90;59.90;;;;;;5072661;28;20215;-70
2022/09/17 04:02:58;;;;;;;2.00;0.90;;;19.00;59.90;;;;;;5072215;28;20178;-71
2022/09/17 04:05:23;;;;;;;3.00;1.25;;;19.00;59.90;;;;;;5072190;28;20206;-71
2022/09/17 04:07:49;;;;;;;1.40;0.70;;;19.00;59.90;;;;;;5072662;28;20309;-70
2022/09/17 04:10:15;;;;;;;1.90;0.90;;;19.00;60.00;;;;;;5072231;28;20210;-70
2022/09/17 04:12:40;;;;;;;1.60;0.82;;;19.00;59.90;;;;;;5071915;28;20637;-70
2022/09/17 04:15:06;;;;;;;1.08;0.70;;;19.00;60.00;;;;;;5072245;28;20240;-71
2022/09/17 04:17:32;;;;;;;1.75;0.90;;;19.00;60.00;;;;;;5072619;28;20203;-71
2022/09/17 04:19:58;;;;;;;1.48;0.90;;;19.00;60.00;;;;;;5071652;28;20261;-70
2022/09/17 04:22:24;;;;;;;1.55;0.80;;;19.00;59.90;;;;;;5072583;28;20173;-71
2022/09/17 04:24:49;;;;;;;1.45;0.82;;;19.00;59.90;;;;;;5072376;28;20186;-69
2022/09/17 04:27:15;;;;;;;1.80;0.60;;;19.00;60.00;;;;;;5071608;28;20167;-71
2022/09/17 04:29:40;;;;;;;1.98;1.00;;;18.90;59.90;;;;;;5072134;28;20210;-70
2022/09/17 04:32:06;;;;;;;1.25;0.77;;;18.90;59.90;;;;;;5072018;28;20316;-70
2022/09/17 04:34:32;;;;;;;2.85;0.85;;;19.00;60.10;;;;;;5071793;28;20264;-71
2022/09/17 04:36:57;;;;;;;2.28;1.00;;;18.90;59.90;;;;;;5072014;28;20247;-72
2022/09/17 04:39:23;;;;;;;3.08;1.13;;;18.90;60.00;;;;;;5072269;28;20182;-71
2022/09/17 04:41:48;;;;;;;1.30;0.80;;;19.00;60.10;;;;;;5072110;28;20236;-72
2022/09/17 04:44:14;;;;;;;1.20;0.73;;;18.90;60.00;;;;;;5072007;28;20170;-71
2022/09/17 04:46:39;;;;;;;2.05;0.88;;;18.90;60.00;;;;;;5071812;28;20167;-71
2022/09/17 04:49:05;;;;;;;1.48;0.90;;;18.90;60.00;;;;;;5071974;28;20276;-71
2022/09/17 04:51:30;;;;;;;4.22;0.90;;;18.90;60.00;;;;;;5072347;28;20245;-70
2022/09/17 04:53:56;;;;;;;2.60;1.17;;;18.90;60.00;;;;;;5071522;28;20205;-70
2022/09/17 04:56:21;;;;;;;2.28;0.73;;;18.90;60.00;;;;;;5072096;28;20584;-70
2022/09/17 04:58:47;;;;;;;1.23;0.70;;;18.90;60.10;;;;;;5072082;28;20179;-70
2022/09/17 05:01:13;;;;;;;1.50;0.70;;;18.90;60.00;;;;;;5071240;28;20170;-71
2022/09/17 05:03:42;;;;;;;1.90;1.15;;;18.90;60.10;;;;;;5072019;28;20544;-71
2022/09/17 05:06:07;;;;;;;2.05;0.80;;;18.90;60.10;;;;;;5074232;28;20253;-70
2022/09/17 05:08:33;;;;;;;2.55;0.90;;;18.80;60.00;;;;;;5075339;28;20316;-70
2022/09/17 05:10:58;;;;;;;2.00;1.25;;;18.80;60.00;;;;;;5075869;28;20210;-71
2022/09/17 05:13:24;;;;;;;1.23;0.63;;;18.90;60.20;;;;;;5076063;28;20174;-71
2022/09/17 05:15:50;;;;;;;1.55;0.80;;;18.90;60.10;;;;;;5075538;28;20185;-71
2022/09/17 05:18:15;;;;;;;1.27;0.57;;;18.90;60.10;;;;;;5075863;28;20167;-70
2022/09/17 05:20:41;;;;;;;1.25;0.98;;;18.90;60.10;;;;;;5075981;28;20193;-71
2022/09/17 05:23:07;;;;;;;1.48;0.90;;;18.80;60.00;;;;;;5074806;28;20170;-71
2022/09/17 05:25:32;;;;;;;1.05;0.60;;;18.90;60.10;;;;;;5075753;28;20733;-70
2022/09/17 05:28:00;;;;;;;2.60;1.00;;;18.80;60.10;;;;;;5075125;28;20257;-71
2022/09/17 05:30:25;;;;;;;1.48;0.90;;;18.80;60.10;;;;;;5075175;28;20217;-70
2022/09/17 05:33:00;;;;;;;1.73;0.90;;;18.80;60.00;;;;;;5075847;28;20541;-71
2022/09/17 05:35:26;;;;;;;1.20;0.90;;;18.80;60.00;;;;;;5075615;28;20174;-71
2022/09/17 05:37:56;;;;;;;1.50;0.75;;;18.80;60.10;;;;;;5075005;28;20170;-70
2022/09/17 05:40:22;;;;;;;2.38;1.20;;;18.80;60.10;;;;;;5075264;28;20628;-71
2022/09/17 05:42:47;;;;;;;1.23;0.60;;;18.80;60.10;;;;;;5074730;28;20182;-71
2022/09/17 05:45:13;;;;;;;1.27;0.65;;;18.80;60.10;;;;;;5075306;28;20171;-70
2022/09/17 05:47:38;;;;;;;1.05;0.80;;;18.80;60.20;;;;;;5075263;28;20179;-71
2022/09/17 05:50:04;;;;;;;1.13;0.60;;;18.80;60.10;;;;;;5074111;28;20210;-69
2022/09/17 05:52:29;;;;;;;2.17;0.80;;;18.80;60.10;;;;;;5075170;28;20261;-70
2022/09/17 05:54:55;;;;;;;1.85;0.70;;;18.80;60.10;;;;;;5075115;28;20270;-70
2022/09/17 05:57:21;;;;;;;1.75;0.82;;;18.80;60.10;;;;;;5074225;28;20269;-71
2022/09/17 05:59:46;;;;;;;3.28;1.05;;;18.80;60.10;;;;;;5074967;28;20261;-71
2022/09/17 06:02:15;;;;;;;1.42;0.90;;;18.80;60.10;;;;;;5074753;28;20181;-71
2022/09/17 06:04:40;;;;;;;1.45;0.80;;;18.80;60.10;;;;;;5074402;28;20295;-71
2022/09/17 06:07:08;;;;;;;1.58;0.93;;;18.80;60.10;;;;;;5074285;28;20218;-70
2022/09/17 06:09:36;;;;;;;2.60;0.70;;;18.80;60.10;;;;;;5074741;28;20206;-70
2022/09/17 06:12:02;;;;;;;1.75;0.77;;;18.80;60.10;;;;;;5073827;28;20182;-71
2022/09/17 06:14:28;;;;;;;2.38;0.95;;;18.80;60.10;;;;;;5074730;28;20217;-71
2022/09/17 06:16:54;;;;;;;1.52;0.90;;;18.80;60.10;;;;;;5074523;28;20202;-71
2022/09/17 06:19:20;;;;;;;0.68;0.60;;;18.80;60.10;;;;;;5073693;28;20224;-69
2022/09/17 06:21:46;;;;;;;2.38;0.98;;;18.80;60.40;;;;;;5075220;28;20162;-69
2022/09/17 06:24:11;;;;;;;4.13;0.80;;;18.80;60.20;;;;;;5074301;28;20228;-68
2022/09/17 06:26:37;;;;;;;1.60;0.90;;;18.80;60.20;;;;;;5074180;28;20182;-67
2022/09/17 06:29:02;;;;;;;4.60;1.35;;;18.90;60.30;;;;;;5074329;28;20170;-67
2022/09/17 06:31:28;;;;;;;2.45;1.17;;;18.90;60.30;;;;;;5074395;28;20182;-68
2022/09/17 06:33:55;;;;;;;4.18;1.10;;;18.90;60.20;;;;;;5073969;28;20167;-68
2022/09/17 06:36:21;;;;;;;2.88;1.52;;;18.90;60.10;;;;;;5074237;28;20179;-68
2022/09/17 06:38:46;;;;;;;2.58;1.13;;;18.90;60.10;;;;;;5074182;28;20181;-68
2022/09/17 06:41:13;;;;;;;1.77;0.80;;;19.00;60.10;;;;;;5073698;28;20178;-69
2022/09/17 06:43:38;;;;;;;3.53;1.25;;;19.00;60.20;;;;;;5074430;28;20196;-69
2022/09/17 06:46:04;;;;;;;5.18;1.13;;;19.10;60.10;;;;;;5073186;28;20548;-67
2022/09/17 06:48:32;;;;;;;3.15;1.23;;;19.10;60.00;;;;;;5074341;28;20175;-68
2022/09/17 06:51:02;;;;;;;6.68;1.15;;;19.10;60.90;;;;;;5072475;28;20225;-67
2022/09/17 06:53:28;;;;;;;2.05;0.90;;;19.10;60.00;;;;;;5073157;28;20211;-67
2022/09/17 06:55:57;;;;;;;4.70;1.15;;;19.10;60.10;;;;;;5074330;28;20541;-68
2022/09/17 06:58:24;;;;;;;2.83;1.17;;;19.10;60.30;;;;;;5072946;28;20209;-69
2022/09/17 07:00:49;;;;;;;4.78;1.30;;;19.10;61.20;;;;;;5073153;28;20181;-68
2022/09/17 07:03:15;;;;;;;3.42;1.20;;;19.10;60.30;;;;;;5073432;28;20179;-68
2022/09/17 07:05:42;;;;;;;2.05;1.00;;;19.10;60.30;;;;;;5073913;28;20652;-69
2022/09/17 07:08:09;;;;;;;4.97;1.02;;;19.00;60.30;;;;;;5070136;28;20297;-68
2022/09/17 07:10:35;;;;;;;4.47;1.20;;;19.10;60.40;;;;;;5073754;28;20218;-68
2022/09/17 07:13:00;;;;;;;6.93;1.20;;;19.00;60.30;;;;;;5073582;28;20262;-64
2022/09/17 07:15:26;;;;;;;5.82;1.40;;;19.00;60.20;;;;;;5072900;28;20269;-70
2022/09/17 07:17:52;;;;;;;5.47;1.38;;;19.00;60.00;;;;;;5069707;28;20182;-71
2022/09/17 07:20:17;;;;;;;6.30;1.45;;;19.10;59.80;;;;;;5073121;28;20185;-70
2022/09/17 07:22:43;;;;;;;3.85;1.30;;;19.10;59.70;;;;;;5072421;28;20174;-71
2022/09/17 07:25:09;;;;;;;5.53;1.75;;;19.10;59.50;;;;;;5072950;28;20262;-70
2022/09/17 07:27:34;;;;;;;6.28;1.10;;;19.10;59.50;;;;;;5072935;28;20170;-67
2022/09/17 07:30:00;;;;;;;5.95;1.40;;;19.00;59.40;;;;;;5072259;28;20202;-68
2022/09/17 07:32:28;;;;;;;4.43;1.60;;;19.10;59.40;;;;;;5073579;28;20170;-67
2022/09/17 07:34:53;;;;;;;4.38;1.00;;;19.10;59.40;;;;;;5071939;28;20659;-65
2022/09/17 07:37:20;;;;;;;3.65;1.23;;;19.20;59.30;;;;;;5072178;28;20198;-67
2022/09/17 07:39:45;;;;;;;4.28;1.52;;;19.20;59.50;;;;;;5073445;28;20198;-68
2022/09/17 07:42:11;;;;;;;4.55;1.30;;;19.10;59.50;;;;;;5072929;28;20197;-69
2022/09/17 07:44:36;;;;;;;8.52;1.15;;;19.10;59.70;;;;;;5071937;28;20189;-68
2022/09/17 07:47:02;;;;;;;3.75;1.02;;;19.20;59.70;;;;;;5072767;28;20200;-69
2022/09/17 07:49:28;;;;;;;4.25;0.93;;;19.20;59.60;;;;;;5072318;28;20210;-68
2022/09/17 07:51:53;;;;;;;6.78;1.60;;;19.20;59.50;;;;;;5072929;28;20300;-68
2022/09/17 07:54:19;;;;;;;2.70;1.05;;;19.20;59.50;;;;;;5072503;28;20625;-68
2022/09/17 07:56:45;;;;;;;3.65;0.85;;;19.30;59.50;;;;;;5072295;28;20178;-68
2022/09/17 07:59:10;;;;;;;2.05;0.90;;;19.30;59.40;;;;;;5072626;28;20236;-69
2022/09/17 08:01:36;;;;;;;2.60;0.95;;;19.30;59.40;;;;;;5072860;28;20166;-69
2022/09/17 08:04:01;;;;;;;1.75;0.80;;;19.30;59.30;;;;;;5071620;28;20649;-69
2022/09/17 08:06:27;;;;;;;6.07;1.65;;;19.40;59.20;;;;;;5072640;28;20308;-68
2022/09/17 08:08:57;;;;;;;1.85;0.70;;;19.40;59.20;;;;;;5072855;28;20516;-67
2022/09/17 08:11:24;;;;;;;2.00;1.00;;;19.40;59.20;;;;;;5071945;28;20233;-68
2022/09/17 08:13:50;;;;;;;1.90;0.75;;;19.40;59.10;;;;;;5072641;28;20182;-68
2022/09/17 08:16:16;;;;;;;1.95;1.00;;;19.50;59.10;;;;;;5072163;28;20193;-70
2022/09/17 08:18:42;;;;;;;1.30;0.77;;;19.50;59.10;;;;;;5071397;28;20167;-69
2022/09/17 08:21:12;;;;;;;3.08;0.90;;;19.50;59.00;;;;;;5072097;28;20174;-68
2022/09/17 08:23:40;;;;;;;4.65;1.35;;;19.60;59.10;;;;;;5072165;28;20182;-68
2022/09/17 08:26:07;;;;;;;2.47;1.08;;;19.50;59.00;;;;;;5071496;28;20185;-69
2022/09/17 08:28:33;;;;;;;4.28;1.10;;;19.50;58.80;;;;;;5072357;28;20261;-68
2022/09/17 08:31:07;;;;;;;2.50;1.02;;;19.60;58.80;;;;;;5071977;28;20355;-69
2022/09/17 08:33:33;;;;;;;2.13;0.73;;;19.60;58.80;;;;;;5071697;28;20183;-68
2022/09/17 08:35:58;;;;;;;1.98;1.27;;;19.70;58.80;;;;;;5072239;28;20257;-70
2022/09/17 08:38:25;;;;;;;3.85;1.10;;;19.70;58.80;;;;;;5072482;28;20639;-69
2022/09/17 08:40:59;;;;;;;1.83;0.88;;;19.60;58.80;;;;;;5070802;28;20179;-69
2022/09/17 08:43:25;;;;;;;4.32;1.02;;;19.60;59.00;;;;;;5054639;28;20222;-69
2022/09/17 08:45:53;;;;;;;1.90;0.70;;;19.60;59.00;;;;;;5070169;28;20179;-65
2022/09/17 08:48:18;;;;;;;3.10;1.23;;;19.60;59.00;;;;;;5071985;28;20179;-69
2022/09/17 08:50:44;;;;;;;4.60;1.48;;;19.60;59.00;;;;;;5070926;28;20255;-68
2022/09/17 08:53:38;;;;;;;4.53;0.98;;;19.50;59.10;;;;;;5069769;28;20312;-69
2022/09/17 08:56:10;;;;;;;2.97;1.02;;;19.60;59.10;;;;;;5071593;28;20175;-70
2022/09/17 08:58:40;;;;;;;3.65;1.17;;;19.50;58.90;;;;;;5054765;28;20186;-69
2022/09/17 09:01:15;;;;;;;6.03;1.30;;;19.60;58.90;;;;;;5071251;28;20182;-70
2022/09/17 09:04:05;;;;;;;1.30;1.13;;;19.70;58.80;;;;;;5070948;28;20178;-70
2022/09/17 09:06:36;;;;;;;4.72;1.00;;;19.70;58.80;;;;;;5071818;28;20249;-68
2022/09/17 09:09:05;;;;;;;2.28;0.90;;;19.70;58.80;;;;;;5053360;28;20190;-68
2022/09/17 09:11:30;;;;;;;1.45;0.75;;;19.60;58.80;;;;;;5070733;28;20197;-69
2022/09/17 09:14:01;;;;;;;4.40;0.90;;;19.60;59.00;;;;;;5071308;28;20170;-69
2022/09/17 09:16:28;;;;;;;1.35;0.70;;;19.60;59.00;;;;;;5071938;28;20206;-71
2022/09/17 09:18:54;;;;;;;3.22;0.98;;;19.60;59.10;;;;;;5070805;28;20182;-70
2022/09/17 09:21:32;;;;;;;2.55;0.93;;;19.60;58.90;;;;;;5070811;28;20191;-69
2022/09/17 09:24:09;;;;;;;2.92;0.82;;;19.70;58.80;;;;;;5070230;28;20581;-70
2022/09/17 09:26:52;;;;;;;4.10;0.90;;;19.80;58.60;;;;;;5070695;28;20174;-69
2022/09/17 09:29:37;;;;;;;1.65;0.73;;;19.80;58.50;;;;;;5069444;28;20190;-68
2022/09/17 09:32:21;;;;;;;3.17;0.95;;;19.80;59.20;;;;;;5070645;28;20175;-70
2022/09/17 09:34:46;;;;;;;1.67;0.73;;;19.90;58.60;;;;;;5071862;28;20175;-69
2022/09/17 09:37:34;;;;;;;3.22;0.80;;;19.90;58.40;;;;;;5069642;28;20223;-70
2022/09/17 09:40:23;;;;;;;2.25;0.73;;;20.00;58.40;;;;;;5054703;28;20611;-70
2022/09/17 09:42:49;;;;;;;2.65;0.75;;;20.00;58.20;;;;;;5069874;28;20182;-70
2022/09/17 09:45:17;;;;;;;1.27;0.68;;;20.00;58.20;;;;;;5070266;28;20181;-71
2022/09/17 09:48:10;;;;;;;3.55;1.23;;;19.90;58.30;;;;;;5071741;28;20193;-69
2022/09/17 09:50:56;;;;;;;1.95;0.88;;;19.80;58.50;;;;;;5070747;28;20256;-69
2022/09/17 09:53:30;;;;;;;1.42;0.80;;;19.70;58.60;;;;;;5059317;28;20175;-68
2022/09/17 09:56:08;;;;;;;3.35;1.25;;;19.60;58.80;;;;;;5057308;28;20261;-68
2022/09/17 09:58:40;;;;;;;5.55;0.93;;;19.60;58.80;;;;;;5075263;28;20181;-69
2022/09/17 10:01:19;;;;;;;2.60;0.80;;;19.60;58.80;;;;;;5074640;28;20304;-70
2022/09/17 10:03:45;;;;;;;4.30;0.80;;;19.50;58.90;;;;;;5074462;28;20253;-69
2022/09/17 10:06:10;;;;;;;1.95;0.55;;;19.50;59.00;;;;;;5073412;28;20372;-68
2022/09/17 10:09:00;;;;;;;1.98;0.82;;;19.50;58.90;;;;;;5073826;28;20524;-68
2022/09/17 10:11:27;;;;;;;2.55;0.88;;;19.40;59.00;;;;;;5070075;28;20316;-69
2022/09/17 10:13:52;;;;;;;1.33;0.60;;;19.50;59.00;;;;;;5075126;28;20256;-70
2022/09/17 10:16:20;;;;;;;1.25;0.50;;;19.50;58.70;;;;;;5073588;28;20202;-70
2022/09/17 10:19:04;;;;;;;1.70;0.57;;;19.70;58.50;;;;;;5074032;28;20629;-70
2022/09/17 10:21:38;;;;;;;2.83;0.60;;;19.80;58.40;;;;;;5074677;28;20182;-70
2022/09/17 10:24:19;;;;;;;0.70;0.47;;;19.80;58.30;;;;;;5073646;28;20178;-69
2022/09/17 10:26:44;;;;;;;2.33;0.80;;;19.90;58.20;;;;;;5073364;28;20249;-68
2022/09/17 10:29:17;;;;;;;1.10;0.60;;;20.00;58.10;;;;;;5073285;28;20190;-69
2022/09/17 10:31:50;;;;;;;1.23;0.55;;;20.00;58.00;;;;;;5072752;28;20312;-69
2022/09/17 10:34:26;;;;;;;1.35;0.52;;;20.00;58.10;;;;;;5056479;28;21072;-70
2022/09/17 10:36:52;;;;;;;3.35;0.77;;;19.90;58.20;;;;;;5072203;28;20190;-70
2022/09/17 10:39:19;;;;;;;2.47;0.70;;;19.80;58.30;;;;;;5072282;28;20175;-69
2022/09/17 10:41:58;;;;;;;3.78;0.82;;;19.80;58.50;;;;;;5073077;28;20541;-71
2022/09/17 10:44:26;;;;;;;2.42;0.63;;;19.60;58.60;;;;;;5074422;28;20235;-70
2022/09/17 10:46:51;;;;;;;2.95;0.50;;;19.60;58.80;;;;;;5073523;28;20178;-69
2022/09/17 10:49:33;;;;;;;3.00;0.80;;;19.50;58.80;;;;;;5072934;28;20178;-69
2022/09/17 10:52:07;;;;;;;0.90;0.70;;;19.50;58.80;;;;;;5072959;28;20178;-69
2022/09/17 10:54:41;;;;;;;1.70;0.50;;;19.50;58.90;;;;;;5073559;28;20185;-69
2022/09/17 10:57:06;;;;;;;1.65;0.68;;;19.40;58.90;;;;;;5073639;28;20171;-70
2022/09/17 11:00:04;;;;;;;2.05;0.63;;;19.40;58.90;;;;;;5072123;28;20182;-70
2022/09/17 11:03:05;;;;;;;1.52;0.50;;;19.40;58.80;;;;;;5073280;28;20572;-70
2022/09/17 11:05:51;;;;;;;1.40;0.65;;;19.50;58.70;;;;;;5072874;28;20554;-69
2022/09/17 11:08:33;;;;;;;1.33;0.63;;;19.60;58.40;;;;;;5068622;28;20225;-68
2022/09/17 11:11:28;;;;;;;0.93;0.60;;;19.70;58.20;;;;;;5072370;28;20217;-69
2022/09/17 11:14:08;;;;;;;1.08;0.88;;;19.80;58.10;;;;;;5072061;28;20525;-70
2022/09/17 11:16:41;;;;;;;1.65;0.50;;;19.80;58.00;;;;;;5073875;28;20177;-70
2022/09/17 11:19:33;;;;;;;1.55;0.40;;;19.90;58.00;;;;;;5072370;28;20175;-70
2022/09/17 11:22:11;;;;;;;1.23;0.80;;;19.90;58.00;;;;;;5071551;28;20189;-70
2022/09/17 11:24:59;;;;;;;1.80;0.40;;;20.00;58.00;;;;;;5072597;28;20170;-69
2022/09/17 11:27:52;;;;;;;1.13;0.55;;;20.00;57.90;;;;;;5072384;28;20513;-68
2022/09/17 11:30:18;;;;;;;1.60;0.50;;;20.00;57.90;;;;;;5071841;28;20614;-69
2022/09/17 11:33:21;;;;;;;0.93;0.45;;;20.10;57.90;;;;;;5072340;28;20189;-70
2022/09/17 11:35:58;;;;;;;1.10;0.50;;;20.10;57.90;;;;;;5072777;28;20207;-69
2022/09/17 11:38:28;;;;;;;2.47;0.77;;;20.10;57.90;;;;;;5056506;28;20633;-70
2022/09/17 11:41:03;;;;;;;2.70;0.60;;;20.10;57.90;;;;;;5073221;28;20193;-69
2022/09/17 11:43:34;;;;;;;2.45;0.60;;;20.20;57.90;;;;;;5055077;28;20185;-70
2022/09/17 11:46:01;;;;;;;1.13;0.60;;;20.20;57.80;;;;;;5071818;28;20292;-69
2022/09/17 11:48:45;;;;;;;1.23;0.43;;;20.20;57.90;;;;;;5071546;28;20574;-69
2022/09/17 11:51:13;;;;;;;1.05;0.52;;;20.20;57.80;;;;;;5072728;28;20206;-68
2022/09/17 11:53:55;;;;;;;0.47;0.30;;;20.30;57.80;;;;;;5072854;28;20174;-68
2022/09/17 11:56:40;;;;;;;1.17;0.45;;;20.30;57.70;;;;;;5070847;28;20182;-68
2022/09/17 11:59:29;;;;;;;1.00;0.70;;;20.30;57.70;;;;;;5072596;28;20171;-69
2022/09/17 12:01:57;;;;;;;0.55;0.47;;;20.40;57.60;;;;;;5072890;28;20186;-69
2022/09/17 12:04:48;;;;;;;1.50;0.50;;;20.40;57.60;;;;;;5070810;28;20702;-69
2022/09/17 12:07:34;;;;;;;2.55;0.60;;;20.40;57.60;;;;;;5072451;28;20226;-68
2022/09/17 12:10:40;;;;;;;1.45;0.73;;;20.20;57.90;;;;;;5071590;28;20728;-68
2022/09/17 12:13:14;;;;;;;1.08;0.50;;;20.00;58.20;;;;;;5071555;28;20286;-70
2022/09/17 12:15:42;;;;;;;2.65;0.60;;;19.90;58.40;;;;;;5071338;28;20224;-70
2022/09/17 12:18:32;;;;;;;2.63;0.47;;;19.80;58.40;;;;;;5071760;28;20200;-70
2022/09/17 12:20:58;;;;;;;1.83;0.63;;;19.80;58.50;;;;;;5072448;28;20171;-70
2022/09/17 12:23:46;;;;;;;0.98;0.57;;;19.80;58.60;;;;;;5054928;28;20195;-69
2022/09/17 12:26:31;;;;;;;1.45;0.60;;;19.90;58.60;;;;;;5071036;28;20185;-69
2022/09/17 12:29:31;;;;;;;1.15;0.52;;;20.00;58.20;;;;;;5072736;28;20174;-68
2022/09/17 12:32:21;;;;;;;2.58;0.93;;;20.00;58.10;;;;;;5071599;28;20269;-69
2022/09/17 12:34:53;;;;;;;2.63;0.93;;;20.10;58.00;;;;;;5071091;28;20750;-69
2022/09/17 12:37:22;;;;;;;2.03;0.57;;;20.20;57.90;;;;;;5070899;28;20179;-69
2022/09/17 12:40:16;;;;;;;3.90;0.98;;;20.20;57.80;;;;;;5070509;28;20173;-69
2022/09/17 12:42:57;;;;;;;2.50;0.77;;;20.20;57.70;;;;;;5071098;28;20174;-70
2022/09/17 12:45:32;;;;;;;2.28;0.90;;;20.20;57.70;;;;;;5070478;28;20623;-69
2022/09/17 12:47:57;;;;;;;1.60;0.52;;;20.20;57.80;;;;;;5070850;28;20186;-70
2022/09/17 12:50:54;;;;;;;4.40;0.80;;;20.30;57.80;;;;;;5071971;28;20217;-68
2022/09/17 12:53:37;;;;;;;3.97;0.70;;;20.20;57.80;;;;;;5071273;28;20193;-68
2022/09/17 12:56:14;;;;;;;4.30;1.00;;;20.20;57.80;;;;;;5054120;28;20182;-68
2022/09/17 12:58:52;;;;;;;2.67;0.70;;;20.30;57.70;;;;;;5072262;28;20178;-69
2022/09/17 13:01:23;;;;;;;2.35;0.73;;;20.30;57.60;;;;;;5072019;28;20268;-70
2022/09/17 13:03:54;;;;;;;2.45;0.80;;;20.30;57.80;;;;;;5070697;28;20756;-69
2022/09/17 13:06:31;;;;;;;2.10;0.80;;;20.30;57.80;;;;;;5069778;28;20186;-68
2022/09/17 13:09:04;;;;;;;1.85;0.70;;;20.30;57.60;;;;;;5071950;28;20538;-69
2022/09/17 13:11:49;;;;;;;1.33;0.60;;;20.50;57.60;;;;;;5072112;28;20222;-68